sensor_id;sensor_type;location;lat;lon;timestamp;temperature;humidity
80132;SHT30;69442;51.442;10.564;2024-02-16T00:02:19;10.57;81.40
80132;SHT30;69442;51.442;10.564;2024-02-16T00:04:44;10.55;81.81
80132;SHT30;69442;51.442;10.564;2024-02-16T00:07:09;10.54;81.58
80132;SHT30;69442;51.442;10.564;2024-02-16T00:09:35;10.50;81.08
80132;SHT30;69442;51.442;10.564;2024-02-16T00:12:01;10.48;81.01
80132;SHT30;69442;51.442;10.564;2024-02-16T00:14:26;10.51;81.71
80132;SHT30;69442;51.442;10.564;2024-02-16T00:16:52;10.47;81.68
80132;SHT30;69442;51.442;10.564;2024-02-16T00:19:17;10.47;81.71
80132;SHT30;69442;51.442;10.564;2024-02-16T00:21:42;10.43;81.54
80132;SHT30;69442;51.442;10.564;2024-02-16T00:24:08;10.38;81.44
80132;SHT30;69442;51.442;10.564;2024-02-16T00:26:34;10.44;82.30
80132;SHT30;69442;51.442;10.564;2024-02-16T00:28:59;10.43;81.79
80132;SHT30;69442;51.442;10.564;2024-02-16T00:31:25;10.40;81.78
80132;SHT30;69442;51.442;10.564;2024-02-16T00:33:50;10.43;82.32
80132;SHT30;69442;51.442;10.564;2024-02-16T00:36:15;10.43;82.11
80132;SHT30;69442;51.442;10.564;2024-02-16T00:38:41;10.38;82.11
80132;SHT30;69442;51.442;10.564;2024-02-16T00:41:06;10.41;82.35
80132;SHT30;69442;51.442;10.564;2024-02-16T00:43:32;10.34;81.79
80132;SHT30;69442;51.442;10.564;2024-02-16T00:45:58;10.40;82.72
80132;SHT30;69442;51.442;10.564;2024-02-16T00:48:24;10.37;82.26
80132;SHT30;69442;51.442;10.564;2024-02-16T00:50:49;10.38;82.83
80132;SHT30;69442;51.442;10.564;2024-02-16T00:53:14;10.36;82.42
80132;SHT30;69442;51.442;10.564;2024-02-16T00:55:40;10.34;82.17
80132;SHT30;69442;51.442;10.564;2024-02-16T00:58:07;10.34;82.41
80132;SHT30;69442;51.442;10.564;2024-02-16T01:00:32;10.37;82.81
80132;SHT30;69442;51.442;10.564;2024-02-16T01:02:58;10.32;81.91
80132;SHT30;69442;51.442;10.564;2024-02-16T01:05:23;10.27;81.79
80132;SHT30;69442;51.442;10.564;2024-02-16T01:07:48;10.30;82.77
80132;SHT30;69442;51.442;10.564;2024-02-16T01:10:14;10.30;82.66
80132;SHT30;69442;51.442;10.564;2024-02-16T01:12:39;10.24;82.17
80132;SHT30;69442;51.442;10.564;2024-02-16T01:15:05;10.26;82.21
80132;SHT30;69442;51.442;10.564;2024-02-16T01:17:31;10.24;82.31
80132;SHT30;69442;51.442;10.564;2024-02-16T01:19:58;10.20;82.16
80132;SHT30;69442;51.442;10.564;2024-02-16T01:22:23;10.14;82.09
80132;SHT30;69442;51.442;10.564;2024-02-16T01:24:49;10.14;81.82
80132;SHT30;69442;51.442;10.564;2024-02-16T01:27:14;10.12;82.03
80132;SHT30;69442;51.442;10.564;2024-02-16T01:29:41;10.09;82.62
80132;SHT30;69442;51.442;10.564;2024-02-16T01:32:06;10.13;82.81
80132;SHT30;69442;51.442;10.564;2024-02-16T01:34:32;10.12;82.47
80132;SHT30;69442;51.442;10.564;2024-02-16T01:36:57;10.09;82.49
80132;SHT30;69442;51.442;10.564;2024-02-16T01:39:23;10.08;82.24
80132;SHT30;69442;51.442;10.564;2024-02-16T01:41:49;10.08;82.11
80132;SHT30;69442;51.442;10.564;2024-02-16T01:44:14;10.03;81.70
80132;SHT30;69442;51.442;10.564;2024-02-16T01:46:42;10.01;81.82
80132;SHT30;69442;51.442;10.564;2024-02-16T01:49:07;9.99;82.08
80132;SHT30;69442;51.442;10.564;2024-02-16T01:51:33;9.99;82.34
80132;SHT30;69442;51.442;10.564;2024-02-16T01:54:00;9.95;82.14
80132;SHT30;69442;51.442;10.564;2024-02-16T01:56:26;10.02;82.87
80132;SHT30;69442;51.442;10.564;2024-02-16T01:58:52;10.02;83.02
80132;SHT30;69442;51.442;10.564;2024-02-16T02:01:17;10.02;82.83
80132;SHT30;69442;51.442;10.564;2024-02-16T02:03:43;10.01;82.69
80132;SHT30;69442;51.442;10.564;2024-02-16T02:06:08;10.01;82.91
80132;SHT30;69442;51.442;10.564;2024-02-16T02:08:34;10.05;82.96
80132;SHT30;69442;51.442;10.564;2024-02-16T02:10:59;10.05;82.74
80132;SHT30;69442;51.442;10.564;2024-02-16T02:13:24;9.99;82.26
80132;SHT30;69442;51.442;10.564;2024-02-16T02:15:50;9.92;82.20
80132;SHT30;69442;51.442;10.564;2024-02-16T02:18:15;9.98;82.79
80132;SHT30;69442;51.442;10.564;2024-02-16T02:20:41;9.96;82.87
80132;SHT30;69442;51.442;10.564;2024-02-16T02:23:06;9.92;82.32
80132;SHT30;69442;51.442;10.564;2024-02-16T02:25:31;9.92;82.85
80132;SHT30;69442;51.442;10.564;2024-02-16T02:27:57;9.91;82.68
80132;SHT30;69442;51.442;10.564;2024-02-16T02:30:22;9.91;82.78
80132;SHT30;69442;51.442;10.564;2024-02-16T02:32:49;9.92;82.79
80132;SHT30;69442;51.442;10.564;2024-02-16T02:35:16;9.89;82.84
80132;SHT30;69442;51.442;10.564;2024-02-16T02:37:43;9.88;82.70
80132;SHT30;69442;51.442;10.564;2024-02-16T02:40:08;9.82;82.24
80132;SHT30;69442;51.442;10.564;2024-02-16T02:42:35;9.78;82.33
80132;SHT30;69442;51.442;10.564;2024-02-16T02:45:01;9.71;82.64
80132;SHT30;69442;51.442;10.564;2024-02-16T02:47:26;9.68;82.67
80132;SHT30;69442;51.442;10.564;2024-02-16T02:49:52;9.67;82.72
80132;SHT30;69442;51.442;10.564;2024-02-16T02:52:17;9.61;82.86
80132;SHT30;69442;51.442;10.564;2024-02-16T02:54:44;9.59;82.98
80132;SHT30;69442;51.442;10.564;2024-02-16T02:57:09;9.57;82.83
80132;SHT30;69442;51.442;10.564;2024-02-16T02:59:34;9.61;83.13
80132;SHT30;69442;51.442;10.564;2024-02-16T03:02:00;9.59;82.88
80132;SHT30;69442;51.442;10.564;2024-02-16T03:04:25;9.57;82.81
80132;SHT30;69442;51.442;10.564;2024-02-16T03:06:53;9.55;82.62
80132;SHT30;69442;51.442;10.564;2024-02-16T03:09:19;9.58;82.86
80132;SHT30;69442;51.442;10.564;2024-02-16T03:11:44;9.58;82.71
80132;SHT30;69442;51.442;10.564;2024-02-16T03:14:09;9.55;82.62
80132;SHT30;69442;51.442;10.564;2024-02-16T03:16:35;9.51;82.73
80132;SHT30;69442;51.442;10.564;2024-02-16T03:19:00;9.51;82.93
80132;SHT30;69442;51.442;10.564;2024-02-16T03:21:26;9.52;82.87
80132;SHT30;69442;51.442;10.564;2024-02-16T03:23:52;9.54;82.98
80132;SHT30;69442;51.442;10.564;2024-02-16T03:26:19;9.57;82.96
80132;SHT30;69442;51.442;10.564;2024-02-16T03:28:47;9.57;82.82
80132;SHT30;69442;51.442;10.564;2024-02-16T03:31:19;9.54;82.63
80132;SHT30;69442;51.442;10.564;2024-02-16T03:33:45;9.51;82.52
80132;SHT30;69442;51.442;10.564;2024-02-16T03:36:13;9.44;82.49
80132;SHT30;69442;51.442;10.564;2024-02-16T03:38:43;9.43;82.76
80132;SHT30;69442;51.442;10.564;2024-02-16T03:41:13;9.43;82.89
80132;SHT30;69442;51.442;10.564;2024-02-16T03:43:39;9.43;82.98
80132;SHT30;69442;51.442;10.564;2024-02-16T03:46:04;9.43;83.00
80132;SHT30;69442;51.442;10.564;2024-02-16T03:48:30;9.40;82.94
80132;SHT30;69442;51.442;10.564;2024-02-16T03:50:55;9.44;83.20
80132;SHT30;69442;51.442;10.564;2024-02-16T03:53:20;9.48;83.04
80132;SHT30;69442;51.442;10.564;2024-02-16T03:55:46;9.50;83.07
80132;SHT30;69442;51.442;10.564;2024-02-16T03:58:11;9.47;82.96
80132;SHT30;69442;51.442;10.564;2024-02-16T04:00:37;9.44;83.08
80132;SHT30;69442;51.442;10.564;2024-02-16T04:03:04;9.44;83.13
80132;SHT30;69442;51.442;10.564;2024-02-16T04:05:29;9.48;83.23
80132;SHT30;69442;51.442;10.564;2024-02-16T04:07:58;9.46;83.12
80132;SHT30;69442;51.442;10.564;2024-02-16T04:10:27;9.47;83.20
80132;SHT30;69442;51.442;10.564;2024-02-16T04:12:53;9.44;83.23
80132;SHT30;69442;51.442;10.564;2024-02-16T04:15:19;9.43;83.31
80132;SHT30;69442;51.442;10.564;2024-02-16T04:17:44;9.41;83.31
80132;SHT30;69442;51.442;10.564;2024-02-16T04:20:10;9.37;83.42
80132;SHT30;69442;51.442;10.564;2024-02-16T04:22:36;9.39;83.46
80132;SHT30;69442;51.442;10.564;2024-02-16T04:25:03;9.41;83.48
80132;SHT30;69442;51.442;10.564;2024-02-16T04:27:29;9.41;83.40
80132;SHT30;69442;51.442;10.564;2024-02-16T04:29:55;9.41;83.41
80132;SHT30;69442;51.442;10.564;2024-02-16T04:32:20;9.41;83.46
80132;SHT30;69442;51.442;10.564;2024-02-16T04:34:46;9.41;83.33
80132;SHT30;69442;51.442;10.564;2024-02-16T04:37:12;9.43;83.49
80132;SHT30;69442;51.442;10.564;2024-02-16T04:39:38;9.40;83.54
80132;SHT30;69442;51.442;10.564;2024-02-16T04:42:04;9.40;83.49
80132;SHT30;69442;51.442;10.564;2024-02-16T04:44:29;9.39;83.56
80132;SHT30;69442;51.442;10.564;2024-02-16T04:46:55;9.39;83.54
80132;SHT30;69442;51.442;10.564;2024-02-16T04:49:20;9.43;83.43
80132;SHT30;69442;51.442;10.564;2024-02-16T04:51:47;9.39;83.48
80132;SHT30;69442;51.442;10.564;2024-02-16T04:54:12;9.36;83.90
80132;SHT30;69442;51.442;10.564;2024-02-16T04:56:39;9.34;83.75
80132;SHT30;69442;51.442;10.564;2024-02-16T04:59:04;9.33;83.81
80132;SHT30;69442;51.442;10.564;2024-02-16T05:01:30;9.34;83.76
80132;SHT30;69442;51.442;10.564;2024-02-16T05:03:58;9.34;83.97
80132;SHT30;69442;51.442;10.564;2024-02-16T05:06:23;9.33;83.90
80132;SHT30;69442;51.442;10.564;2024-02-16T05:08:49;9.30;83.92
80132;SHT30;69442;51.442;10.564;2024-02-16T05:11:15;9.33;83.66
80132;SHT30;69442;51.442;10.564;2024-02-16T05:13:40;9.34;83.72
80132;SHT30;69442;51.442;10.564;2024-02-16T05:16:09;9.34;83.76
80132;SHT30;69442;51.442;10.564;2024-02-16T05:18:35;9.37;83.60
80132;SHT30;69442;51.442;10.564;2024-02-16T05:21:00;9.33;83.53
80132;SHT30;69442;51.442;10.564;2024-02-16T05:23:26;9.37;83.43
80132;SHT30;69442;51.442;10.564;2024-02-16T05:25:51;9.36;83.43
80132;SHT30;69442;51.442;10.564;2024-02-16T05:28:16;9.37;83.50
80132;SHT30;69442;51.442;10.564;2024-02-16T05:30:42;9.34;83.70
80132;SHT30;69442;51.442;10.564;2024-02-16T05:33:09;9.34;83.65
80132;SHT30;69442;51.442;10.564;2024-02-16T05:35:34;9.37;83.64
80132;SHT30;69442;51.442;10.564;2024-02-16T05:38:04;9.36;83.66
80132;SHT30;69442;51.442;10.564;2024-02-16T05:40:35;9.34;83.83
80132;SHT30;69442;51.442;10.564;2024-02-16T05:43:18;9.30;84.07
80132;SHT30;69442;51.442;10.564;2024-02-16T05:45:43;9.33;83.76
80132;SHT30;69442;51.442;10.564;2024-02-16T05:48:09;9.31;83.78
80132;SHT30;69442;51.442;10.564;2024-02-16T05:50:35;9.33;83.68
80132;SHT30;69442;51.442;10.564;2024-02-16T05:53:01;9.36;83.88
80132;SHT30;69442;51.442;10.564;2024-02-16T05:55:26;9.34;84.14
80132;SHT30;69442;51.442;10.564;2024-02-16T05:57:51;9.29;84.57
80132;SHT30;69442;51.442;10.564;2024-02-16T06:00:17;9.33;86.88
80132;SHT30;69442;51.442;10.564;2024-02-16T06:02:46;9.36;88.58
80132;SHT30;69442;51.442;10.564;2024-02-16T06:05:12;9.33;87.24
80132;SHT30;69442;51.442;10.564;2024-02-16T06:07:38;9.33;87.88
80132;SHT30;69442;51.442;10.564;2024-02-16T06:10:04;9.33;85.35
80132;SHT30;69442;51.442;10.564;2024-02-16T06:12:32;9.37;85.67
80132;SHT30;69442;51.442;10.564;2024-02-16T06:14:58;9.36;85.44
80132;SHT30;69442;51.442;10.564;2024-02-16T06:17:24;9.34;84.46
80132;SHT30;69442;51.442;10.564;2024-02-16T06:19:50;9.33;84.86
80132;SHT30;69442;51.442;10.564;2024-02-16T06:22:16;9.31;84.75
80132;SHT30;69442;51.442;10.564;2024-02-16T06:24:41;9.33;84.75
80132;SHT30;69442;51.442;10.564;2024-02-16T06:27:06;9.31;84.66
80132;SHT30;69442;51.442;10.564;2024-02-16T06:29:34;9.30;84.33
80132;SHT30;69442;51.442;10.564;2024-02-16T06:31:59;9.33;84.60
80132;SHT30;69442;51.442;10.564;2024-02-16T06:34:24;9.31;84.21
80132;SHT30;69442;51.442;10.564;2024-02-16T06:36:50;9.33;84.16
80132;SHT30;69442;51.442;10.564;2024-02-16T06:39:16;9.34;84.13
80132;SHT30;69442;51.442;10.564;2024-02-16T06:41:47;9.31;84.14
80132;SHT30;69442;51.442;10.564;2024-02-16T06:44:15;9.33;83.97
80132;SHT30;69442;51.442;10.564;2024-02-16T06:46:41;9.36;84.06
80132;SHT30;69442;51.442;10.564;2024-02-16T06:49:07;9.31;84.20
80132;SHT30;69442;51.442;10.564;2024-02-16T06:51:32;9.30;84.69
80132;SHT30;69442;51.442;10.564;2024-02-16T06:53:58;9.29;84.52
80132;SHT30;69442;51.442;10.564;2024-02-16T06:56:23;9.30;84.56
80132;SHT30;69442;51.442;10.564;2024-02-16T06:58:49;9.30;84.79
80132;SHT30;69442;51.442;10.564;2024-02-16T07:01:15;9.31;84.51
80132;SHT30;69442;51.442;10.564;2024-02-16T07:03:43;9.27;85.09
80132;SHT30;69442;51.442;10.564;2024-02-16T07:06:08;9.24;85.38
80132;SHT30;69442;51.442;10.564;2024-02-16T07:08:42;9.29;85.44
80132;SHT30;69442;51.442;10.564;2024-02-16T07:11:08;9.33;85.06
80132;SHT30;69442;51.442;10.564;2024-02-16T07:13:37;9.36;85.32
80132;SHT30;69442;51.442;10.564;2024-02-16T07:16:02;9.40;84.90
80132;SHT30;69442;51.442;10.564;2024-02-16T07:18:29;9.40;84.98
80132;SHT30;69442;51.442;10.564;2024-02-16T07:20:55;9.41;85.12
80132;SHT30;69442;51.442;10.564;2024-02-16T07:23:21;9.37;85.72
80132;SHT30;69442;51.442;10.564;2024-02-16T07:25:46;9.40;85.64
80132;SHT30;69442;51.442;10.564;2024-02-16T07:28:12;9.44;85.36
80132;SHT30;69442;51.442;10.564;2024-02-16T07:30:37;9.48;85.08
80132;SHT30;69442;51.442;10.564;2024-02-16T07:33:06;9.47;85.26
80132;SHT30;69442;51.442;10.564;2024-02-16T07:35:34;9.50;85.33
80132;SHT30;69442;51.442;10.564;2024-02-16T07:38:03;9.54;85.37
80132;SHT30;69442;51.442;10.564;2024-02-16T07:40:29;9.59;84.90
80132;SHT30;69442;51.442;10.564;2024-02-16T07:42:56;9.64;84.50
80132;SHT30;69442;51.442;10.564;2024-02-16T07:45:21;9.65;84.33
80132;SHT30;69442;51.442;10.564;2024-02-16T07:47:47;9.67;84.32
80132;SHT30;69442;51.442;10.564;2024-02-16T07:50:12;9.68;84.82
80132;SHT30;69442;51.442;10.564;2024-02-16T07:52:38;9.70;85.65
80132;SHT30;69442;51.442;10.564;2024-02-16T07:55:06;9.70;84.60
80132;SHT30;69442;51.442;10.564;2024-02-16T07:57:31;9.73;84.60
80132;SHT30;69442;51.442;10.564;2024-02-16T07:59:57;9.74;84.79
80132;SHT30;69442;51.442;10.564;2024-02-16T08:02:22;9.78;84.97
80132;SHT30;69442;51.442;10.564;2024-02-16T08:04:48;9.79;84.46
80132;SHT30;69442;51.442;10.564;2024-02-16T08:07:14;9.81;84.35
80132;SHT30;69442;51.442;10.564;2024-02-16T08:09:44;9.84;84.43
80132;SHT30;69442;51.442;10.564;2024-02-16T08:12:09;9.84;84.61
80132;SHT30;69442;51.442;10.564;2024-02-16T08:14:35;9.85;85.26
80132;SHT30;69442;51.442;10.564;2024-02-16T08:17:00;9.86;84.78
80132;SHT30;69442;51.442;10.564;2024-02-16T08:19:32;9.91;85.54
80132;SHT30;69442;51.442;10.564;2024-02-16T08:21:59;9.89;84.84
80132;SHT30;69442;51.442;10.564;2024-02-16T08:24:24;9.91;84.34
80132;SHT30;69442;51.442;10.564;2024-02-16T08:26:51;9.98;84.85
80132;SHT30;69442;51.442;10.564;2024-02-16T08:29:16;9.98;86.07
80132;SHT30;69442;51.442;10.564;2024-02-16T08:31:42;9.98;85.22
80132;SHT30;69442;51.442;10.564;2024-02-16T08:34:09;9.99;86.34
80132;SHT30;69442;51.442;10.564;2024-02-16T08:36:36;9.99;85.09
80132;SHT30;69442;51.442;10.564;2024-02-16T08:39:03;10.01;84.42
80132;SHT30;69442;51.442;10.564;2024-02-16T08:41:28;10.05;84.23
80132;SHT30;69442;51.442;10.564;2024-02-16T08:43:53;10.08;84.48
80132;SHT30;69442;51.442;10.564;2024-02-16T08:46:20;10.12;84.26
80132;SHT30;69442;51.442;10.564;2024-02-16T08:48:45;10.13;84.32
80132;SHT30;69442;51.442;10.564;2024-02-16T08:51:11;10.17;84.25
80132;SHT30;69442;51.442;10.564;2024-02-16T08:53:36;10.21;84.59
80132;SHT30;69442;51.442;10.564;2024-02-16T08:56:02;10.23;85.54
80132;SHT30;69442;51.442;10.564;2024-02-16T08:58:27;10.24;84.40
80132;SHT30;69442;51.442;10.564;2024-02-16T09:00:53;10.24;84.92
80132;SHT30;69442;51.442;10.564;2024-02-16T09:03:18;10.26;84.59
80132;SHT30;69442;51.442;10.564;2024-02-16T09:05:44;10.32;84.99
80132;SHT30;69442;51.442;10.564;2024-02-16T09:08:10;10.34;85.32
80132;SHT30;69442;51.442;10.564;2024-02-16T09:10:36;10.36;85.58
80132;SHT30;69442;51.442;10.564;2024-02-16T09:13:01;10.34;85.68
80132;SHT30;69442;51.442;10.564;2024-02-16T09:15:27;10.33;84.71
80132;SHT30;69442;51.442;10.564;2024-02-16T09:17:53;10.38;85.43
80132;SHT30;69442;51.442;10.564;2024-02-16T09:20:19;10.38;84.86
80132;SHT30;69442;51.442;10.564;2024-02-16T09:22:48;10.43;84.53
80132;SHT30;69442;51.442;10.564;2024-02-16T09:25:14;10.46;84.44
80132;SHT30;69442;51.442;10.564;2024-02-16T09:27:40;10.48;84.83
80132;SHT30;69442;51.442;10.564;2024-02-16T09:30:11;10.50;84.49
80132;SHT30;69442;51.442;10.564;2024-02-16T09:32:39;10.60;85.16
80132;SHT30;69442;51.442;10.564;2024-02-16T09:35:05;10.60;85.17
80132;SHT30;69442;51.442;10.564;2024-02-16T09:37:30;10.65;84.91
80132;SHT30;69442;51.442;10.564;2024-02-16T09:39:55;10.67;84.14
80132;SHT30;69442;51.442;10.564;2024-02-16T09:42:23;10.72;85.07
80132;SHT30;69442;51.442;10.564;2024-02-16T09:44:50;10.79;85.33
80132;SHT30;69442;51.442;10.564;2024-02-16T09:47:15;10.78;85.33
80132;SHT30;69442;51.442;10.564;2024-02-16T09:49:45;10.85;85.88
80132;SHT30;69442;51.442;10.564;2024-02-16T09:52:11;10.81;84.61
80132;SHT30;69442;51.442;10.564;2024-02-16T09:54:39;10.85;84.70
80132;SHT30;69442;51.442;10.564;2024-02-16T09:57:05;10.85;84.85
80132;SHT30;69442;51.442;10.564;2024-02-16T09:59:31;10.92;85.58
80132;SHT30;69442;51.442;10.564;2024-02-16T10:02:03;10.98;85.94
80132;SHT30;69442;51.442;10.564;2024-02-16T10:04:29;10.99;85.35
80132;SHT30;69442;51.442;10.564;2024-02-16T10:06:54;11.05;86.15
80132;SHT30;69442;51.442;10.564;2024-02-16T10:09:27;11.10;85.76
80132;SHT30;69442;51.442;10.564;2024-02-16T10:11:54;11.19;85.09
80132;SHT30;69442;51.442;10.564;2024-02-16T10:14:20;11.23;84.04
80132;SHT30;69442;51.442;10.564;2024-02-16T10:16:47;11.24;83.84
80132;SHT30;69442;51.442;10.564;2024-02-16T10:19:12;11.28;84.38
80132;SHT30;69442;51.442;10.564;2024-02-16T10:21:39;11.34;83.68
80132;SHT30;69442;51.442;10.564;2024-02-16T10:24:08;11.40;83.38
80132;SHT30;69442;51.442;10.564;2024-02-16T10:26:35;11.41;83.09
80132;SHT30;69442;51.442;10.564;2024-02-16T10:29:05;11.48;82.42
80132;SHT30;69442;51.442;10.564;2024-02-16T10:31:32;11.50;82.83
80132;SHT30;69442;51.442;10.564;2024-02-16T10:34:00;11.54;82.63
80132;SHT30;69442;51.442;10.564;2024-02-16T10:36:27;11.55;83.09
80132;SHT30;69442;51.442;10.564;2024-02-16T10:38:54;11.58;83.08
80132;SHT30;69442;51.442;10.564;2024-02-16T10:41:23;11.58;83.04
80132;SHT30;69442;51.442;10.564;2024-02-16T10:43:52;11.67;82.98
80132;SHT30;69442;51.442;10.564;2024-02-16T10:46:19;11.69;83.25
80132;SHT30;69442;51.442;10.564;2024-02-16T10:48:45;11.69;83.27
80132;SHT30;69442;51.442;10.564;2024-02-16T10:51:11;11.77;83.09
80132;SHT30;69442;51.442;10.564;2024-02-16T10:53:38;11.82;81.65
80132;SHT30;69442;51.442;10.564;2024-02-16T10:56:03;11.86;82.21
80132;SHT30;69442;51.442;10.564;2024-02-16T10:58:31;11.95;80.67
80132;SHT30;69442;51.442;10.564;2024-02-16T11:01:08;11.95;80.76
80132;SHT30;69442;51.442;10.564;2024-02-16T11:03:37;12.00;80.58
80132;SHT30;69442;51.442;10.564;2024-02-16T11:06:15;11.99;80.33
80132;SHT30;69442;51.442;10.564;2024-02-16T11:08:43;12.00;80.45
80132;SHT30;69442;51.442;10.564;2024-02-16T11:11:09;12.02;81.60
80132;SHT30;69442;51.442;10.564;2024-02-16T11:13:39;12.02;81.20
80132;SHT30;69442;51.442;10.564;2024-02-16T11:16:08;12.09;81.09
80132;SHT30;69442;51.442;10.564;2024-02-16T11:18:39;12.12;80.94
80132;SHT30;69442;51.442;10.564;2024-02-16T11:21:05;12.16;81.42
80132;SHT30;69442;51.442;10.564;2024-02-16T11:23:34;12.23;81.41
80132;SHT30;69442;51.442;10.564;2024-02-16T11:26:01;12.29;80.69
80132;SHT30;69442;51.442;10.564;2024-02-16T11:28:28;12.33;80.65
80132;SHT30;69442;51.442;10.564;2024-02-16T11:30:54;12.40;80.50
80132;SHT30;69442;51.442;10.564;2024-02-16T11:33:19;12.48;80.57
80132;SHT30;69442;51.442;10.564;2024-02-16T11:36:16;12.58;79.53
80132;SHT30;69442;51.442;10.564;2024-02-16T11:38:42;12.62;80.17
80132;SHT30;69442;51.442;10.564;2024-02-16T11:41:08;12.68;79.48
80132;SHT30;69442;51.442;10.564;2024-02-16T11:43:33;12.78;79.17
80132;SHT30;69442;51.442;10.564;2024-02-16T11:45:59;12.84;79.04
80132;SHT30;69442;51.442;10.564;2024-02-16T11:48:27;12.85;79.97
80132;SHT30;69442;51.442;10.564;2024-02-16T11:51:01;12.85;80.04
80132;SHT30;69442;51.442;10.564;2024-02-16T11:53:30;12.88;81.50
80132;SHT30;69442;51.442;10.564;2024-02-16T11:55:56;12.92;81.18
80132;SHT30;69442;51.442;10.564;2024-02-16T11:58:23;12.96;82.34
80132;SHT30;69442;51.442;10.564;2024-02-16T12:00:49;13.04;79.01
80132;SHT30;69442;51.442;10.564;2024-02-16T12:03:22;13.12;78.33
80132;SHT30;69442;51.442;10.564;2024-02-16T12:05:55;13.14;79.58
80132;SHT30;69442;51.442;10.564;2024-02-16T12:08:21;13.17;79.20
80132;SHT30;69442;51.442;10.564;2024-02-16T12:10:47;13.24;78.73
80132;SHT30;69442;51.442;10.564;2024-02-16T12:13:19;13.23;80.03
80132;SHT30;69442;51.442;10.564;2024-02-16T12:15:45;13.31;77.51
80132;SHT30;69442;51.442;10.564;2024-02-16T12:18:19;13.37;77.06
80132;SHT30;69442;51.442;10.564;2024-02-16T12:20:45;13.37;79.25
80132;SHT30;69442;51.442;10.564;2024-02-16T12:23:14;13.41;77.11
80132;SHT30;69442;51.442;10.564;2024-02-16T12:25:39;13.43;78.79
80132;SHT30;69442;51.442;10.564;2024-02-16T12:28:05;13.48;79.01
80132;SHT30;69442;51.442;10.564;2024-02-16T12:30:30;13.53;78.72
80132;SHT30;69442;51.442;10.564;2024-02-16T12:32:55;13.58;79.90
80132;SHT30;69442;51.442;10.564;2024-02-16T12:35:21;13.62;78.51
80132;SHT30;69442;51.442;10.564;2024-02-16T12:37:47;13.65;78.39
80132;SHT30;69442;51.442;10.564;2024-02-16T12:40:12;13.73;77.25
80132;SHT30;69442;51.442;10.564;2024-02-16T12:42:38;13.76;77.73
80132;SHT30;69442;51.442;10.564;2024-02-16T12:45:04;13.85;77.09
80132;SHT30;69442;51.442;10.564;2024-02-16T12:47:29;13.85;76.21
80132;SHT30;69442;51.442;10.564;2024-02-16T12:49:56;13.87;76.56
80132;SHT30;69442;51.442;10.564;2024-02-16T12:52:22;13.90;76.26
80132;SHT30;69442;51.442;10.564;2024-02-16T12:54:48;13.96;75.87
80132;SHT30;69442;51.442;10.564;2024-02-16T12:57:13;13.98;75.62
80132;SHT30;69442;51.442;10.564;2024-02-16T12:59:38;13.96;76.31
80132;SHT30;69442;51.442;10.564;2024-02-16T13:02:04;13.96;76.71
80132;SHT30;69442;51.442;10.564;2024-02-16T13:04:29;14.02;74.93
80132;SHT30;69442;51.442;10.564;2024-02-16T13:06:57;14.12;75.62
80132;SHT30;69442;51.442;10.564;2024-02-16T13:09:22;14.14;76.41
80132;SHT30;69442;51.442;10.564;2024-02-16T13:11:48;14.13;75.60
80132;SHT30;69442;51.442;10.564;2024-02-16T13:14:19;14.18;75.97
80132;SHT30;69442;51.442;10.564;2024-02-16T13:16:45;14.18;77.01
80132;SHT30;69442;51.442;10.564;2024-02-16T13:19:10;14.23;79.26
80132;SHT30;69442;51.442;10.564;2024-02-16T13:21:36;14.21;78.74
80132;SHT30;69442;51.442;10.564;2024-02-16T13:24:03;14.24;78.68
80132;SHT30;69442;51.442;10.564;2024-02-16T13:26:30;14.28;79.71
80132;SHT30;69442;51.442;10.564;2024-02-16T13:28:55;14.35;78.67
80132;SHT30;69442;51.442;10.564;2024-02-16T13:31:21;14.35;77.90
80132;SHT30;69442;51.442;10.564;2024-02-16T13:33:47;14.40;77.66
80132;SHT30;69442;51.442;10.564;2024-02-16T13:36:13;14.45;77.03
80132;SHT30;69442;51.442;10.564;2024-02-16T13:38:38;14.46;79.75
80132;SHT30;69442;51.442;10.564;2024-02-16T13:41:04;14.51;78.06
80132;SHT30;69442;51.442;10.564;2024-02-16T13:43:30;14.54;77.43
80132;SHT30;69442;51.442;10.564;2024-02-16T13:45:56;14.60;77.29
80132;SHT30;69442;51.442;10.564;2024-02-16T13:48:23;14.64;78.91
80132;SHT30;69442;51.442;10.564;2024-02-16T13:50:50;14.65;79.55
80132;SHT30;69442;51.442;10.564;2024-02-16T13:53:15;14.71;75.81
80132;SHT30;69442;51.442;10.564;2024-02-16T13:55:42;14.73;76.20
80132;SHT30;69442;51.442;10.564;2024-02-16T13:58:12;14.76;77.40
80132;SHT30;69442;51.442;10.564;2024-02-16T14:00:37;14.85;74.56
80132;SHT30;69442;51.442;10.564;2024-02-16T14:03:06;14.89;74.05
80132;SHT30;69442;51.442;10.564;2024-02-16T14:05:35;14.92;74.15
80132;SHT30;69442;51.442;10.564;2024-02-16T14:08:00;14.92;75.29
80132;SHT30;69442;51.442;10.564;2024-02-16T14:10:26;14.90;75.40
80132;SHT30;69442;51.442;10.564;2024-02-16T14:12:51;14.93;76.08
80132;SHT30;69442;51.442;10.564;2024-02-16T14:15:17;14.93;75.90
80132;SHT30;69442;51.442;10.564;2024-02-16T14:17:44;14.96;76.96
80132;SHT30;69442;51.442;10.564;2024-02-16T14:20:10;15.00;74.79
80132;SHT30;69442;51.442;10.564;2024-02-16T14:22:36;15.00;74.87
80132;SHT30;69442;51.442;10.564;2024-02-16T14:25:01;15.03;75.79
80132;SHT30;69442;51.442;10.564;2024-02-16T14:27:26;15.04;75.92
80132;SHT30;69442;51.442;10.564;2024-02-16T14:29:52;15.04;79.92
80132;SHT30;69442;51.442;10.564;2024-02-16T14:32:17;15.08;79.62
80132;SHT30;69442;51.442;10.564;2024-02-16T14:34:43;15.11;80.88
80132;SHT30;69442;51.442;10.564;2024-02-16T14:37:10;15.07;77.60
80132;SHT30;69442;51.442;10.564;2024-02-16T14:39:35;15.11;75.81
80132;SHT30;69442;51.442;10.564;2024-02-16T14:42:00;15.13;75.81
80132;SHT30;69442;51.442;10.564;2024-02-16T14:44:26;15.13;75.84
80132;SHT30;69442;51.442;10.564;2024-02-16T14:46:51;15.14;75.40
80132;SHT30;69442;51.442;10.564;2024-02-16T14:49:17;15.14;74.26
80132;SHT30;69442;51.442;10.564;2024-02-16T14:51:46;15.16;77.34
80132;SHT30;69442;51.442;10.564;2024-02-16T14:54:13;15.14;78.95
80132;SHT30;69442;51.442;10.564;2024-02-16T14:56:38;15.11;75.01
80132;SHT30;69442;51.442;10.564;2024-02-16T14:59:04;15.16;78.19
80132;SHT30;69442;51.442;10.564;2024-02-16T15:01:30;15.11;74.52
80132;SHT30;69442;51.442;10.564;2024-02-16T15:03:56;15.13;76.50
80132;SHT30;69442;51.442;10.564;2024-02-16T15:06:22;15.11;76.12
80132;SHT30;69442;51.442;10.564;2024-02-16T15:08:47;15.11;76.69
80132;SHT30;69442;51.442;10.564;2024-02-16T15:11:13;15.11;76.37
80132;SHT30;69442;51.442;10.564;2024-02-16T15:13:38;15.13;79.07
80132;SHT30;69442;51.442;10.564;2024-02-16T15:16:05;15.10;78.35
80132;SHT30;69442;51.442;10.564;2024-02-16T15:18:30;15.08;74.67